createdAt,value
2022-12-29T00:00:08.693Z,2.28
2022-12-29T00:03:20.923Z,2.20
2022-12-29T00:06:27.950Z,2.16
2022-12-29T00:09:33.608Z,2.15
2022-12-29T00:12:55.634Z,2.14
2022-12-29T00:16:04.099Z,2.09
2022-12-29T00:19:30.449Z,1.97
2022-12-29T00:22:51.661Z,2.05
2022-12-29T00:26:13.588Z,2.05
2022-12-29T00:29:35.396Z,2.05
2022-12-29T00:33:00.023Z,2.03
2022-12-29T00:36:11.327Z,2.02
2022-12-29T00:39:38.487Z,2.00
2022-12-29T00:42:59.807Z,2.00
2022-12-29T00:46:06.329Z,1.92
2022-12-29T00:49:35.922Z,1.94
2022-12-29T00:52:42.141Z,1.97
2022-12-29T00:55:48.869Z,2.09
2022-12-29T00:58:55.158Z,2.07
2022-12-29T01:02:17.690Z,2.07
2022-12-29T01:05:29.491Z,2.03
2022-12-29T01:08:35.583Z,2.01
2022-12-29T01:11:40.852Z,2.08
2022-12-29T01:14:46.811Z,2.13
2022-12-29T01:17:53.119Z,2.16
2022-12-29T01:21:08.689Z,2.18
2022-12-29T01:24:17.887Z,2.21
2022-12-29T01:27:23.574Z,2.19
2022-12-29T01:30:29.989Z,2.15
2022-12-29T01:33:35.394Z,2.11
2022-12-29T01:36:44.457Z,2.07
2022-12-29T01:39:50.906Z,2.03
2022-12-29T01:42:57.128Z,1.95
2022-12-29T01:46:02.745Z,1.97
2022-12-29T01:49:21.122Z,1.93
2022-12-29T01:52:36.892Z,1.87
2022-12-29T01:55:53.362Z,1.84
2022-12-29T01:59:09.893Z,1.83
2022-12-29T02:02:18.051Z,1.87
2022-12-29T02:05:36.159Z,1.89
2022-12-29T02:08:47.205Z,1.81
2022-12-29T02:11:52.911Z,1.91
2022-12-29T02:15:06.486Z,1.92
2022-12-29T02:18:33.238Z,1.98
2022-12-29T02:22:04.388Z,2.05
2022-12-29T02:25:59.958Z,2.06
2022-12-29T02:29:56.494Z,2.01
2022-12-29T02:33:25.423Z,2.10
2022-12-29T02:36:46.882Z,2.10
2022-12-29T02:40:06.488Z,2.05
2022-12-29T02:43:28.622Z,1.94
2022-12-29T02:46:47.183Z,1.82
2022-12-29T02:50:10.152Z,1.80
2022-12-29T02:53:44.057Z,1.80
2022-12-29T02:56:46.731Z,1.83
2022-12-29T03:00:00.914Z,1.88
2022-12-29T03:03:32.778Z,1.94
2022-12-29T03:07:00.430Z,1.90
2022-12-29T03:10:23.689Z,1.94
2022-12-29T03:13:59.643Z,2.03
2022-12-29T03:17:14.927Z,2.16
2022-12-29T03:20:30.393Z,2.01
2022-12-29T03:23:43.959Z,2.20
2022-12-29T03:26:55.451Z,2.20
2022-12-29T03:30:08.159Z,2.21
2022-12-29T03:33:21.073Z,2.15
2022-12-29T03:36:40.785Z,2.08
2022-12-29T03:39:51.195Z,2.05
2022-12-29T03:42:59.485Z,2.06
2022-12-29T03:46:08.061Z,2.01
2022-12-29T03:49:14.052Z,1.94
2022-12-29T03:52:20.554Z,1.85
2022-12-29T03:55:29.676Z,1.74
2022-12-29T03:58:36.824Z,1.69
2022-12-29T04:01:51.565Z,1.64
2022-12-29T04:04:58.660Z,1.62
2022-12-29T04:08:04.364Z,1.63
2022-12-29T04:11:13.348Z,1.63
2022-12-29T04:14:20.545Z,1.58
2022-12-29T04:17:27.061Z,1.59
2022-12-29T04:20:48.885Z,1.59
2022-12-29T04:23:55.859Z,1.54
2022-12-29T04:27:04.413Z,1.52
2022-12-29T04:30:58.282Z,1.42
2022-12-29T04:34:08.974Z,1.38
2022-12-29T04:37:15.273Z,1.33
2022-12-29T04:40:21.169Z,0.76
2022-12-29T04:43:30.814Z,1.27
2022-12-29T04:46:56.368Z,1.25
2022-12-29T04:50:30.805Z,1.27
2022-12-29T04:53:47.082Z,1.27
2022-12-29T04:56:53.332Z,1.13
2022-12-29T05:00:03.140Z,1.14
2022-12-29T05:03:09.811Z,1.15
2022-12-29T05:06:18.305Z,1.20
2022-12-29T05:09:25.889Z,1.26
2022-12-29T05:12:34.974Z,1.41
2022-12-29T05:15:44.877Z,1.50
2022-12-29T05:18:50.633Z,1.53
2022-12-29T05:21:57.182Z,1.60
2022-12-29T05:25:02.932Z,1.67
2022-12-29T05:28:10.244Z,1.69
2022-12-29T05:31:28.065Z,1.69
2022-12-29T05:34:34.436Z,1.60
2022-12-29T05:37:40.325Z,1.55
2022-12-29T05:40:47.910Z,1.59
2022-12-29T05:44:09.841Z,1.68
2022-12-29T05:47:34.041Z,1.71
2022-12-29T05:50:52.026Z,1.70
2022-12-29T05:54:04.246Z,1.74
2022-12-29T05:57:09.692Z,1.80
2022-12-29T06:00:19.401Z,1.61
2022-12-29T06:03:28.704Z,1.89
2022-12-29T06:06:35.507Z,1.95
2022-12-29T06:09:42.273Z,2.01
2022-12-29T06:12:50.210Z,2.12
2022-12-29T06:15:55.782Z,2.17
2022-12-29T06:19:08.267Z,2.26
2022-12-29T06:22:15.038Z,2.36
2022-12-29T06:25:22.915Z,2.46
2022-12-29T06:28:28.458Z,2.50
2022-12-29T06:31:34.883Z,2.53
2022-12-29T06:34:43.525Z,2.54
2022-12-29T06:37:49.773Z,2.55
2022-12-29T06:40:55.642Z,2.56
2022-12-29T06:44:17.366Z,2.56
2022-12-29T06:47:30.003Z,2.55
2022-12-29T06:50:39.556Z,2.55
2022-12-29T06:53:45.035Z,2.57
2022-12-29T06:56:51.854Z,2.62
2022-12-29T06:59:58.452Z,2.70
2022-12-29T07:03:05.109Z,2.77
2022-12-29T07:06:13.599Z,2.80
2022-12-29T07:09:20.710Z,2.87
2022-12-29T07:12:26.113Z,2.99
2022-12-29T07:15:32.699Z,3.24
2022-12-29T07:18:38.998Z,3.62
2022-12-29T07:21:48.082Z,4.10
2022-12-29T07:24:53.470Z,4.73
2022-12-29T07:27:59.809Z,4.91
2022-12-29T07:31:05.971Z,5.17
2022-12-29T07:34:13.010Z,5.05
2022-12-29T07:37:22.012Z,5.04
2022-12-29T07:40:29.183Z,4.91
2022-12-29T07:43:35.189Z,4.75
2022-12-29T07:47:01.947Z,4.95
2022-12-29T07:50:09.859Z,5.24
2022-12-29T07:53:19.499Z,5.32
2022-12-29T07:56:25.000Z,5.49
2022-12-29T07:59:31.568Z,5.29
2022-12-29T08:02:37.213Z,5.11
2022-12-29T08:05:43.769Z,4.97
2022-12-29T08:08:52.192Z,4.80
2022-12-29T08:11:59.304Z,4.84
2022-12-29T08:15:04.767Z,4.72
2022-12-29T08:18:11.234Z,4.43
2022-12-29T08:21:16.737Z,4.34
2022-12-29T08:24:26.512Z,4.27
2022-12-29T08:27:32.104Z,4.17
2022-12-29T08:30:40.354Z,4.10
2022-12-29T08:33:45.984Z,4.08
2022-12-29T08:36:55.288Z,4.00
2022-12-29T08:40:05.018Z,3.91
2022-12-29T08:43:13.646Z,3.91
2022-12-29T08:46:21.288Z,3.83
2022-12-29T08:49:27.641Z,3.84
2022-12-29T08:52:33.064Z,3.76
2022-12-29T08:55:42.217Z,3.80
2022-12-29T08:58:47.842Z,4.09
2022-12-29T09:01:54.201Z,4.59
2022-12-29T09:05:00.256Z,5.13
2022-12-29T09:08:06.778Z,5.16
2022-12-29T09:11:20.227Z,5.75
2022-12-29T09:14:26.702Z,6.13
2022-12-29T09:17:50.241Z,6.12
2022-12-29T09:21:01.832Z,6.09
2022-12-29T09:24:07.487Z,5.91
2022-12-29T09:27:16.878Z,5.65
2022-12-29T09:30:24.399Z,5.40
2022-12-29T09:33:31.021Z,5.26
2022-12-29T09:36:36.759Z,5.18
2022-12-29T09:39:44.785Z,5.08
2022-12-29T09:43:16.792Z,5.02
2022-12-29T09:46:30.826Z,4.99
2022-12-29T09:49:48.499Z,5.02
2022-12-29T09:53:09.018Z,5.05
2022-12-29T09:56:22.476Z,5.05
2022-12-29T09:59:44.516Z,5.09
2022-12-29T10:02:57.354Z,5.14
2022-12-29T10:06:15.828Z,5.19
2022-12-29T10:09:38.496Z,5.16
2022-12-29T10:13:10.724Z,5.21
2022-12-29T10:16:32.379Z,5.21
2022-12-29T10:20:11.479Z,5.24
2022-12-29T10:23:40.226Z,5.23
2022-12-29T10:26:50.943Z,5.30
2022-12-29T10:30:02.044Z,5.38
2022-12-29T10:33:21.898Z,5.49
2022-12-29T10:36:39.794Z,5.64
2022-12-29T10:39:55.374Z,5.73
2022-12-29T10:43:03.061Z,5.74
2022-12-29T10:46:16.878Z,5.71
2022-12-29T10:49:25.778Z,6.14
2022-12-29T10:52:37.251Z,6.51
2022-12-29T10:55:46.529Z,7.07
2022-12-29T10:58:55.523Z,7.07
2022-12-29T11:02:26.405Z,6.93
2022-12-29T11:05:44.534Z,6.61
2022-12-29T11:09:01.103Z,6.89
2022-12-29T11:12:25.527Z,7.30
2022-12-29T11:15:31.985Z,7.58
2022-12-29T11:18:41.674Z,7.51
2022-12-29T11:21:49.855Z,7.29
2022-12-29T11:24:59.143Z,7.06
2022-12-29T11:28:18.201Z,6.85
2022-12-29T11:31:26.554Z,6.79
2022-12-29T11:34:37.507Z,6.74
2022-12-29T11:37:46.618Z,6.74
2022-12-29T11:40:53.592Z,6.77
2022-12-29T11:44:05.083Z,6.57
2022-12-29T11:47:25.720Z,6.77
2022-12-29T11:50:37.973Z,6.79
2022-12-29T11:53:54.121Z,6.83
2022-12-29T11:57:12.884Z,6.87
2022-12-29T12:00:22.952Z,6.91
2022-12-29T12:03:36.208Z,6.99
2022-12-29T12:06:53.394Z,7.05
2022-12-29T12:10:08.809Z,7.09
2022-12-29T12:13:29.522Z,7.16
2022-12-29T12:16:45.694Z,7.21
2022-12-29T12:20:03.950Z,7.26
2022-12-29T12:23:30.039Z,7.32
2022-12-29T12:26:59.169Z,7.47
2022-12-29T12:30:13.652Z,7.42
2022-12-29T12:33:31.662Z,7.51
2022-12-29T12:37:08.153Z,7.43
2022-12-29T12:40:44.073Z,7.46
2022-12-29T12:44:04.477Z,7.47
2022-12-29T12:47:43.380Z,7.48
2022-12-29T12:51:08.371Z,7.50
2022-12-29T12:54:42.775Z,7.54
2022-12-29T12:58:05.719Z,7.61
2022-12-29T13:01:42.360Z,7.74
2022-12-29T13:05:28.226Z,7.87
2022-12-29T13:09:26.179Z,7.88
2022-12-29T13:12:46.850Z,8.10
2022-12-29T13:16:13.779Z,8.07
2022-12-29T13:19:39.520Z,8.08
2022-12-29T13:23:01.147Z,8.10
2022-12-29T13:26:24.251Z,8.08
2022-12-29T13:29:44.692Z,8.09
2022-12-29T13:33:14.949Z,8.26
2022-12-29T13:36:39.335Z,8.29
2022-12-29T13:39:55.660Z,8.27
2022-12-29T13:43:03.798Z,8.13
2022-12-29T13:46:21.218Z,8.06
2022-12-29T13:49:27.896Z,7.92
2022-12-29T13:52:50.061Z,7.87
2022-12-29T13:56:09.007Z,7.75
2022-12-29T13:59:31.993Z,7.64
2022-12-29T14:03:06.956Z,7.53
2022-12-29T14:06:30.015Z,7.47
2022-12-29T14:11:14.733Z,7.39
2022-12-29T14:14:30.511Z,7.30
2022-12-29T14:18:09.769Z,7.20
2022-12-29T18:05:34.998Z,5.44
2022-12-29T18:08:44.245Z,5.40
2022-12-29T18:11:49.682Z,5.31
2022-12-29T18:14:56.263Z,5.19
2022-12-29T18:18:06.665Z,5.15
2022-12-29T18:21:22.236Z,5.15
2022-12-29T18:24:28.594Z,5.16
2022-12-29T18:27:34.861Z,5.02
2022-12-29T18:30:41.332Z,5.01
2022-12-29T18:33:47.732Z,4.95
2022-12-29T18:36:56.017Z,4.95
2022-12-29T18:40:03.515Z,4.90
2022-12-29T18:43:09.343Z,4.79
2022-12-29T18:46:22.369Z,4.78
2022-12-29T18:49:29.299Z,4.82
2022-12-29T18:52:38.312Z,4.78
2022-12-29T18:55:43.695Z,4.69
2022-12-29T18:58:50.018Z,4.56
2022-12-29T19:01:56.199Z,4.60
2022-12-29T19:05:07.478Z,4.59
2022-12-29T19:08:17.704Z,4.61
2022-12-29T19:11:24.435Z,4.57
2022-12-29T19:14:29.878Z,4.48
2022-12-29T19:17:44.542Z,4.64
2022-12-29T19:20:57.235Z,4.59
2022-12-29T19:24:06.376Z,4.56
2022-12-29T19:27:20.166Z,4.50
2022-12-29T19:30:36.612Z,4.51
2022-12-29T19:33:42.439Z,4.40
2022-12-29T19:36:49.549Z,4.49
2022-12-29T19:39:57.843Z,4.52
2022-12-29T19:43:04.233Z,4.45
2022-12-29T19:46:11.969Z,4.31
2022-12-29T19:49:18.352Z,4.42
2022-12-29T19:52:23.901Z,4.44
2022-12-29T19:55:33.041Z,4.39
2022-12-29T19:58:46.670Z,4.35
2022-12-29T20:01:54.274Z,4.28
2022-12-29T20:05:00.671Z,4.16
2022-12-29T20:08:07.727Z,4.11
2022-12-29T20:11:19.466Z,4.12
2022-12-29T20:14:26.018Z,4.07
2022-12-29T20:18:02.631Z,4.08
2022-12-29T20:21:04.820Z,4.18
2022-12-29T20:24:10.599Z,4.22
2022-12-29T20:27:19.931Z,4.22
2022-12-29T20:30:25.520Z,4.25
2022-12-29T20:33:34.505Z,4.24
2022-12-29T20:36:44.842Z,4.15
2022-12-29T20:39:51.781Z,4.15
2022-12-29T20:43:00.244Z,4.16
2022-12-29T20:46:06.704Z,4.14
2022-12-29T20:49:12.224Z,4.13
2022-12-29T20:52:19.437Z,4.07
2022-12-29T20:55:24.833Z,3.95
2022-12-29T20:58:52.528Z,3.89
2022-12-29T21:02:01.742Z,3.88
2022-12-29T21:05:25.622Z,3.86
2022-12-29T21:08:33.258Z,3.79
2022-12-29T21:11:39.678Z,3.81
2022-12-29T21:14:47.961Z,3.79
2022-12-29T21:17:54.342Z,3.85
2022-12-29T21:21:00.556Z,3.83
2022-12-29T21:24:08.271Z,3.83
2022-12-29T21:27:13.684Z,3.84
2022-12-29T21:30:22.743Z,3.90
2022-12-29T21:33:29.013Z,3.92
2022-12-29T21:36:35.914Z,3.93
2022-12-29T21:39:41.480Z,3.94
2022-12-29T21:42:47.937Z,3.96
2022-12-29T21:45:56.186Z,3.99
2022-12-29T21:49:02.557Z,3.90
2022-12-29T21:52:08.530Z,4.01
2022-12-29T21:55:14.803Z,4.12
2022-12-29T21:58:33.114Z,4.15
2022-12-29T22:01:57.850Z,4.12
2022-12-29T22:05:19.083Z,4.05
2022-12-29T22:08:41.009Z,3.98
2022-12-29T22:12:02.042Z,3.93
2022-12-29T22:15:10.194Z,3.91
2022-12-29T22:18:18.314Z,3.89
2022-12-29T22:21:24.535Z,3.80
2022-12-29T22:24:29.932Z,3.84
2022-12-29T22:27:36.423Z,3.88
2022-12-29T22:30:41.932Z,3.91
2022-12-29T22:33:51.346Z,3.90
2022-12-29T22:36:56.838Z,3.83
2022-12-29T22:40:03.126Z,3.79
2022-12-29T22:43:13.099Z,3.65
2022-12-29T22:46:20.032Z,3.72
2022-12-29T22:49:28.426Z,3.73
2022-12-29T22:52:34.746Z,3.68
2022-12-29T22:55:40.188Z,3.65
2022-12-29T22:58:48.945Z,3.64
2022-12-29T23:01:54.661Z,3.60
2022-12-29T23:05:05.305Z,3.61
2022-12-29T23:08:11.330Z,3.52
2022-12-29T23:11:18.323Z,3.48
2022-12-29T23:14:23.739Z,3.38
2022-12-29T23:17:30.264Z,3.39
2022-12-29T23:20:38.903Z,3.42
2022-12-29T23:23:57.866Z,2.20
2022-12-29T23:27:03.328Z,3.39
2022-12-29T23:30:11.291Z,3.45
2022-12-29T23:33:16.684Z,3.49
2022-12-29T23:36:26.057Z,3.56
2022-12-29T23:39:31.492Z,3.59
2022-12-29T23:42:37.790Z,3.59
2022-12-29T23:45:48.943Z,3.55
2022-12-29T23:48:58.127Z,3.51
2022-12-29T23:52:06.362Z,3.52
2022-12-29T23:55:13.943Z,3.44
2022-12-29T23:58:19.342Z,3.43
